QTR15Q OTHH-KJFK
Flight info
| Callsign | QTR15Q |
|---|---|
| Flight time | N/A |
| Altitude | 28000 |
| Route | TULUB B457 NARMI J735 KFA H741 JBL L768 RAF/N0497F300 L768 MODAD B544 ALE M861 NISAP UM861 BELSU UA17 YAVRU UA4 ERKAL UL615 DIGBO UQ26 TUDBU Q26 ETUBA T226 NAVOD DCT PADGU/N0488F320 DCT KEROP DCT SASAL DCT SUBEN T161 AKINI T159 PETIX Z744 COSJE T892 RIDSU Z114 ADENU L608 DENUT L610 KOPUL Q63 ICTAM L179 SAWPE DCT UNFIT DCT LEDGO DCT UNLID DCT ELSOX/M084F340 DCT DINIM DCT 52N020W 52N030W 52N040W 51N050W DCT ALLRY/N0484F340 N468A TUSKY DCT PLYMM PARCH4 |
| Aircraft | B77W/H-SDE1E2E3FGHIJ2J3J4J5M1RWXY/LB1D1 |
Departure
| Time | N/A |
|---|---|
| Airport | Hamad International Airport (OTHH) |
Arrival
| Time | 2026-05-04 15:13 |
|---|---|
| Airport | John F. Kennedy International Airport (KJFK) |
| Time | Latitude | Longitude | Altitude | Speed | Heading |
|---|---|---|---|---|---|
| 2026-05-04 14:30 | 42.52200 | -69.39180 | 35901 ft | 423 kts | 240° |
| 2026-05-04 14:31 | 42.47592 | -69.49311 | 35893 ft | 423 kts | 240° |
| 2026-05-04 14:32 | 42.41431 | -69.62803 | 35894 ft | 422 kts | 240° |
| 2026-05-04 14:32 | 42.38321 | -69.69589 | 35916 ft | 422 kts | 240° |
| 2026-05-04 14:33 | 42.35244 | -69.76291 | 35920 ft | 422 kts | 240° |
| 2026-05-04 14:33 | 42.32161 | -69.82989 | 35916 ft | 424 kts | 240° |
| 2026-05-04 14:34 | 42.29057 | -69.89719 | 35916 ft | 423 kts | 240° |
| 2026-05-04 14:34 | 42.25906 | -69.96534 | 35920 ft | 435 kts | 240° |
| 2026-05-04 14:35 | 42.22637 | -70.03590 | 35919 ft | 450 kts | 240° |
| 2026-05-04 14:35 | 42.19323 | -70.10724 | 35920 ft | 453 kts | 239° |
| 2026-05-04 14:36 | 42.15989 | -70.17883 | 35924 ft | 452 kts | 240° |
| 2026-05-04 14:36 | 42.12655 | -70.25025 | 35927 ft | 452 kts | 240° |
| 2026-05-04 14:37 | 42.09298 | -70.32199 | 35930 ft | 453 kts | 240° |
| 2026-05-04 14:37 | 42.05941 | -70.39359 | 35929 ft | 453 kts | 240° |
| 2026-05-04 14:38 | 42.03017 | -70.46783 | 35929 ft | 452 kts | 248° |
| 2026-05-04 14:38 | 42.00618 | -70.54537 | 35928 ft | 451 kts | 249° |
| 2026-05-04 14:39 | 41.98203 | -70.62289 | 35929 ft | 452 kts | 249° |
| 2026-05-04 14:39 | 41.95761 | -70.70068 | 35934 ft | 451 kts | 248° |
| 2026-05-04 14:40 | 41.92094 | -70.81675 | 35932 ft | 452 kts | 248° |
| 2026-05-04 14:40 | 41.89641 | -70.89404 | 35936 ft | 452 kts | 248° |
| 2026-05-04 14:41 | 41.87186 | -70.97115 | 35933 ft | 452 kts | 248° |
| 2026-05-04 14:42 | 41.82246 | -71.12556 | 35939 ft | 452 kts | 248° |
| 2026-05-04 14:42 | 41.79760 | -71.20293 | 35935 ft | 452 kts | 248° |
| 2026-05-04 14:43 | 41.77270 | -71.28020 | 35941 ft | 453 kts | 248° |
| 2026-05-04 14:43 | 41.74773 | -71.35747 | 35941 ft | 453 kts | 248° |
| 2026-05-04 14:44 | 41.71653 | -71.42959 | 35788 ft | 447 kts | 234° |
| 2026-05-04 14:44 | 41.69577 | -71.46057 | 35148 ft | 453 kts | 227° |
| 2026-05-04 14:44 | 41.67203 | -71.48855 | 34259 ft | 464 kts | 224° |
| 2026-05-04 14:45 | 41.64716 | -71.51633 | 33371 ft | 471 kts | 224° |
| 2026-05-04 14:45 | 41.62190 | -71.54442 | 32558 ft | 473 kts | 224° |
| 2026-05-04 14:45 | 41.59683 | -71.57229 | 31681 ft | 474 kts | 224° |
| 2026-05-04 14:45 | 41.57164 | -71.60027 | 30838 ft | 473 kts | 224° |
| 2026-05-04 14:46 | 41.54673 | -71.62793 | 30287 ft | 466 kts | 224° |
| 2026-05-04 14:46 | 41.52198 | -71.65537 | 29835 ft | 458 kts | 224° |
| 2026-05-04 14:46 | 41.49764 | -71.68234 | 29362 ft | 451 kts | 224° |
| 2026-05-04 14:46 | 41.47365 | -71.70892 | 28860 ft | 445 kts | 224° |
| 2026-05-04 14:47 | 41.45002 | -71.73509 | 28362 ft | 440 kts | 224° |
| 2026-05-04 14:47 | 41.42677 | -71.76080 | 27865 ft | 434 kts | 224° |
| 2026-05-04 14:47 | 41.40375 | -71.78625 | 27370 ft | 429 kts | 224° |
| 2026-05-04 14:47 | 41.38088 | -71.81152 | 26871 ft | 424 kts | 224° |
| 2026-05-04 14:48 | 41.35836 | -71.83636 | 26377 ft | 419 kts | 224° |
| 2026-05-04 14:48 | 41.33616 | -71.86084 | 25889 ft | 414 kts | 224° |
| 2026-05-04 14:48 | 41.31443 | -71.88477 | 25402 ft | 409 kts | 223° |
| 2026-05-04 14:48 | 41.29268 | -71.90872 | 24918 ft | 404 kts | 224° |
| 2026-05-04 14:49 | 41.27101 | -71.93253 | 24437 ft | 399 kts | 224° |
| 2026-05-04 14:49 | 41.24990 | -71.95573 | 23951 ft | 395 kts | 224° |
| 2026-05-04 14:49 | 41.22897 | -71.97871 | 23468 ft | 391 kts | 224° |
| 2026-05-04 14:49 | 41.20771 | -72.00204 | 22986 ft | 399 kts | 224° |
| 2026-05-04 14:50 | 41.18623 | -72.02562 | 22484 ft | 403 kts | 224° |
| 2026-05-04 14:50 | 41.16477 | -72.04911 | 21987 ft | 399 kts | 224° |
| 2026-05-04 14:50 | 41.14354 | -72.07232 | 21496 ft | 396 kts | 224° |
| 2026-05-04 14:50 | 41.12308 | -72.09609 | 21004 ft | 389 kts | 230° |
| 2026-05-04 14:51 | 41.10588 | -72.12349 | 20515 ft | 383 kts | 239° |
| 2026-05-04 14:51 | 41.09275 | -72.15363 | 20036 ft | 377 kts | 248° |
| 2026-05-04 14:51 | 41.08350 | -72.18549 | 19561 ft | 372 kts | 254° |
| 2026-05-04 14:51 | 41.07536 | -72.21783 | 19085 ft | 369 kts | 255° |
| 2026-05-04 14:52 | 41.06740 | -72.24976 | 18616 ft | 367 kts | 255° |
| 2026-05-04 14:52 | 41.05946 | -72.28164 | 18151 ft | 364 kts | 254° |
| 2026-05-04 14:52 | 41.05159 | -72.31325 | 17688 ft | 361 kts | 254° |
| 2026-05-04 14:52 | 41.04377 | -72.34463 | 17224 ft | 358 kts | 254° |
| 2026-05-04 14:53 | 41.03596 | -72.37598 | 16744 ft | 356 kts | 254° |
| 2026-05-04 14:53 | 41.02825 | -72.40686 | 16271 ft | 353 kts | 254° |
| 2026-05-04 14:53 | 41.02066 | -72.43726 | 15812 ft | 350 kts | 254° |
| 2026-05-04 14:53 | 41.01305 | -72.46771 | 15342 ft | 349 kts | 254° |
| 2026-05-04 14:54 | 41.00547 | -72.49795 | 14860 ft | 346 kts | 254° |
| 2026-05-04 14:54 | 40.99792 | -72.52808 | 14430 ft | 344 kts | 253° |
| 2026-05-04 14:54 | 40.99037 | -72.55818 | 13946 ft | 342 kts | 253° |
| 2026-05-04 14:54 | 40.98293 | -72.58778 | 13472 ft | 340 kts | 253° |
| 2026-05-04 14:55 | 40.97561 | -72.61687 | 13032 ft | 336 kts | 253° |
| 2026-05-04 14:55 | 40.96822 | -72.64619 | 12582 ft | 332 kts | 253° |
| 2026-05-04 14:55 | 40.96106 | -72.67459 | 12491 ft | 317 kts | 252° |
| 2026-05-04 14:55 | 40.95422 | -72.70164 | 12433 ft | 303 kts | 252° |
| 2026-05-04 14:56 | 40.94767 | -72.72755 | 12322 ft | 291 kts | 252° |
| 2026-05-04 14:56 | 40.94136 | -72.75246 | 12199 ft | 280 kts | 253° |
| 2026-05-04 14:56 | 40.93531 | -72.77633 | 12073 ft | 270 kts | 252° |
| 2026-05-04 14:56 | 40.92635 | -72.79761 | 11990 ft | 269 kts | 232° |
| 2026-05-04 14:57 | 40.91221 | -72.81461 | 11984 ft | 276 kts | 223° |
| 2026-05-04 14:57 | 40.89692 | -72.83009 | 11981 ft | 277 kts | 221° |
| 2026-05-04 14:57 | 40.88155 | -72.84502 | 11986 ft | 276 kts | 220° |
| 2026-05-04 14:57 | 40.86594 | -72.86003 | 11983 ft | 277 kts | 220° |
| 2026-05-04 14:58 | 40.85037 | -72.87497 | 11985 ft | 276 kts | 220° |
| 2026-05-04 14:58 | 40.83492 | -72.88978 | 11979 ft | 276 kts | 220° |
| 2026-05-04 14:58 | 40.81926 | -72.90478 | 11980 ft | 276 kts | 220° |
| 2026-05-04 14:58 | 40.80372 | -72.91966 | 11982 ft | 273 kts | 220° |
| 2026-05-04 14:59 | 40.78880 | -72.93391 | 11939 ft | 264 kts | 220° |
| 2026-05-04 14:59 | 40.77385 | -72.94821 | 11615 ft | 262 kts | 220° |
| 2026-05-04 14:59 | 40.74468 | -72.97612 | 10922 ft | 260 kts | 220° |
| 2026-05-04 15:00 | 40.73003 | -72.99010 | 10606 ft | 258 kts | 220° |
| 2026-05-04 15:00 | 40.71555 | -73.00392 | 10264 ft | 257 kts | 220° |
| 2026-05-04 15:00 | 40.70148 | -73.01825 | 9903 ft | 254 kts | 230° |
| 2026-05-04 15:01 | 40.69313 | -73.06045 | 9117 ft | 250 kts | 282° |
| 2026-05-04 15:01 | 40.69852 | -73.08192 | 8833 ft | 248 kts | 291° |
| 2026-05-04 15:01 | 40.70782 | -73.10122 | 8477 ft | 251 kts | 302° |
| 2026-05-04 15:01 | 40.71808 | -73.11957 | 8154 ft | 250 kts | 302° |
| 2026-05-04 15:02 | 40.72848 | -73.13798 | 7807 ft | 250 kts | 302° |
| 2026-05-04 15:02 | 40.73897 | -73.15636 | 7463 ft | 250 kts | 302° |
| 2026-05-04 15:02 | 40.74945 | -73.17466 | 7129 ft | 249 kts | 302° |
| 2026-05-04 15:02 | 40.75989 | -73.19283 | 6827 ft | 248 kts | 302° |
| 2026-05-04 15:03 | 40.77021 | -73.21072 | 6513 ft | 247 kts | 302° |
| 2026-05-04 15:03 | 40.78059 | -73.22858 | 6211 ft | 246 kts | 302° |
| 2026-05-04 15:03 | 40.78978 | -73.24729 | 5887 ft | 240 kts | 290° |
| 2026-05-04 15:03 | 40.79627 | -73.26755 | 5696 ft | 232 kts | 287° |
| 2026-05-04 15:04 | 40.80215 | -73.28675 | 5658 ft | 220 kts | 288° |
| 2026-05-04 15:04 | 40.80774 | -73.30507 | 5524 ft | 212 kts | 287° |
| 2026-05-04 15:04 | 40.81320 | -73.32286 | 5301 ft | 209 kts | 287° |
| 2026-05-04 15:04 | 40.81862 | -73.34039 | 5095 ft | 204 kts | 287° |
| 2026-05-04 15:05 | 40.82230 | -73.35824 | 4758 ft | 200 kts | 268° |
| 2026-05-04 15:05 | 40.82111 | -73.37639 | 4469 ft | 198 kts | 261° |
| 2026-05-04 15:05 | 40.81947 | -73.39445 | 4185 ft | 198 kts | 261° |
| 2026-05-04 15:05 | 40.81784 | -73.41231 | 3941 ft | 196 kts | 261° |
| 2026-05-04 15:06 | 40.81621 | -73.43018 | 3647 ft | 196 kts | 261° |
| 2026-05-04 15:06 | 40.81458 | -73.44792 | 3381 ft | 195 kts | 261° |
| 2026-05-04 15:06 | 40.81296 | -73.46562 | 3105 ft | 195 kts | 261° |
| 2026-05-04 15:07 | 40.80971 | -73.50093 | 2504 ft | 201 kts | 261° |
| 2026-05-04 15:07 | 40.80799 | -73.51942 | 2049 ft | 204 kts | 262° |
| 2026-05-04 15:07 | 40.80633 | -73.53758 | 1967 ft | 194 kts | 261° |
| 2026-05-04 15:07 | 40.80473 | -73.55494 | 1968 ft | 195 kts | 261° |
| 2026-05-04 15:08 | 40.80304 | -73.57282 | 1970 ft | 192 kts | 261° |
| 2026-05-04 15:08 | 40.80139 | -73.59037 | 1985 ft | 195 kts | 261° |
| 2026-05-04 15:08 | 40.79951 | -73.60792 | 2020 ft | 192 kts | 260° |
| 2026-05-04 15:08 | 40.79749 | -73.62547 | 1942 ft | 194 kts | 257° |
| 2026-05-04 15:09 | 40.79159 | -73.64089 | 1943 ft | 190 kts | 221° |
| 2026-05-04 15:09 | 40.77948 | -73.64819 | 1939 ft | 193 kts | 202° |
| 2026-05-04 15:09 | 40.76802 | -73.65544 | 2051 ft | 188 kts | 219° |
| 2026-05-04 15:10 | 40.74878 | -73.67571 | 1913 ft | 161 kts | 211° |
| 2026-05-04 15:10 | 40.73885 | -73.68162 | 1855 ft | 153 kts | 208° |
| 2026-05-04 15:10 | 40.72035 | -73.69559 | 1742 ft | 154 kts | 216° |
| 2026-05-04 15:11 | 40.71148 | -73.70293 | 1554 ft | 145 kts | 215° |
| 2026-05-04 15:11 | 40.70332 | -73.70962 | 1371 ft | 134 kts | 215° |
| 2026-05-04 15:11 | 40.69542 | -73.71593 | 1175 ft | 133 kts | 213° |
| 2026-05-04 15:11 | 40.68730 | -73.72204 | 1038 ft | 136 kts | 212° |
| 2026-05-04 15:12 | 40.67908 | -73.72842 | 892 ft | 139 kts | 213° |
| 2026-05-04 15:12 | 40.67078 | -73.73495 | 698 ft | 140 kts | 212° |
| 2026-05-04 15:12 | 40.66237 | -73.74141 | 453 ft | 136 kts | 212° |
| 2026-05-04 15:12 | 40.65429 | -73.74781 | 257 ft | 138 kts | 212° |
| 2026-05-04 15:13 | 40.64594 | -73.75431 | 91 ft | 139 kts | 212° |
| 2026-05-04 15:13 | 40.63802 | -73.76055 | 28 ft | 114 kts | 210° |
| 2026-05-04 15:13 | 40.63249 | -73.76484 | 28 ft | 70 kts | 212° |
| 2026-05-04 15:13 | 40.62948 | -73.76722 | 28 ft | 37 kts | 211° |
| 2026-05-04 15:14 | 40.62740 | -73.76880 | 28 ft | 32 kts | 211° |
| 2026-05-04 15:14 | 40.62588 | -73.77024 | 28 ft | 20 kts | 244° |
| 2026-05-04 15:14 | 40.62590 | -73.77190 | 28 ft | 15 kts | 299° |
| 2026-05-04 15:14 | 40.62680 | -73.77250 | 28 ft | 14 kts | 346° |
| 2026-05-04 15:15 | 40.62770 | -73.77224 | 28 ft | 13 kts | 30° |
| 2026-05-04 15:15 | 40.62866 | -73.77145 | 28 ft | 17 kts | 30° |
| 2026-05-04 15:15 | 40.62988 | -73.77120 | 28 ft | 20 kts | 319° |
| 2026-05-04 15:16 | 40.63142 | -73.77437 | 28 ft | 19 kts | 301° |
| 2026-05-04 15:16 | 40.63208 | -73.77583 | 28 ft | 17 kts | 300° |
| 2026-05-04 15:16 | 40.63320 | -73.77839 | 28 ft | 14 kts | 300° |
| 2026-05-04 15:17 | 40.63372 | -73.77955 | 28 ft | 15 kts | 300° |
| 2026-05-04 15:17 | 40.63495 | -73.78231 | 28 ft | 20 kts | 301° |
| 2026-05-04 15:17 | 40.63564 | -73.78382 | 28 ft | 18 kts | 300° |
| 2026-05-04 15:18 | 40.63625 | -73.78521 | 28 ft | 16 kts | 300° |
| 2026-05-04 15:18 | 40.63683 | -73.78647 | 28 ft | 15 kts | 301° |
| 2026-05-04 15:18 | 40.63736 | -73.78763 | 28 ft | 14 kts | 300° |
| 2026-05-04 15:19 | 40.63840 | -73.78991 | 28 ft | 15 kts | 300° |
| 2026-05-04 15:19 | 40.63898 | -73.79121 | 28 ft | 17 kts | 300° |
| 2026-05-04 15:19 | 40.64016 | -73.79385 | 28 ft | 15 kts | 301° |
| 2026-05-04 15:20 | 40.64082 | -73.79488 | 28 ft | 14 kts | 327° |
| 2026-05-04 15:20 | 40.64172 | -73.79507 | 28 ft | 13 kts | 4° |
| 2026-05-04 15:20 | 40.64260 | -73.79498 | 28 ft | 12 kts | 4° |
| 2026-05-04 15:20 | 40.64341 | -73.79491 | 28 ft | 12 kts | 3° |
| 2026-05-04 15:21 | 40.64438 | -73.79497 | 28 ft | 15 kts | 354° |
| 2026-05-04 15:21 | 40.64555 | -73.79513 | 28 ft | 17 kts | 349° |
| 2026-05-04 15:21 | 40.64735 | -73.79615 | 28 ft | 10 kts | 28° |
| 2026-05-04 15:22 | 40.64778 | -73.79539 | 28 ft | 10 kts | 60° |
| 2026-05-04 15:22 | 40.64813 | -73.79457 | 28 ft | 10 kts | 60° |
| 2026-05-04 15:22 | 40.64880 | -73.79300 | 28 ft | 9 kts | 60° |
| 2026-05-04 15:23 | 40.64912 | -73.79224 | 28 ft | 9 kts | 60° |
| 2026-05-04 15:23 | 40.64944 | -73.79150 | 28 ft | 9 kts | 60° |
| 2026-05-04 15:23 | 40.64975 | -73.79076 | 28 ft | 9 kts | 60° |
| 2026-05-04 15:23 | 40.65003 | -73.79012 | 28 ft | 5 kts | 60° |
| 2026-05-04 15:24 | 40.65030 | -73.78980 | 28 ft | 2 kts | 2° |
| 2026-05-04 15:24 | 40.65062 | -73.79002 | 28 ft | 1 kts | 311° |
| 2026-05-04 15:25 | 40.65069 | -73.79012 | 28 ft | 1 kts | 310° |
| 2026-05-04 15:25 | 40.65075 | -73.79022 | 28 ft | 1 kts | 310° |
| 2026-05-04 15:25 | 40.65079 | -73.79028 | 28 ft | 0 kts | 310° |